createdAt,value
2022-08-26T00:04:38.591Z,23.50
2022-08-26T00:09:42.612Z,23.45
2022-08-26T00:14:49.166Z,23.42
2022-08-26T00:19:53.776Z,23.36
2022-08-26T00:24:58.606Z,23.31
2022-08-26T00:30:06.846Z,23.29
2022-08-26T00:35:13.289Z,23.26
2022-08-26T00:40:22.632Z,23.20
2022-08-26T00:45:27.387Z,23.16
2022-08-26T00:50:32.603Z,23.12
2022-08-26T00:55:39.995Z,23.07
2022-08-26T01:00:45.248Z,23.04
2022-08-26T01:05:51.930Z,22.99
2022-08-26T01:10:59.859Z,22.95
2022-08-26T01:16:06.368Z,22.93
2022-08-26T01:21:18.132Z,22.88
2022-08-26T01:26:29.768Z,22.86
2022-08-26T01:31:46.432Z,22.82
2022-08-26T01:36:52.773Z,22.77
2022-08-26T01:42:02.909Z,22.73
2022-08-26T01:47:07.784Z,22.68
2022-08-26T01:52:14.516Z,22.60
2022-08-26T01:57:17.022Z,22.55
2022-08-26T02:02:21.958Z,22.50
2022-08-26T02:07:27.352Z,22.44
2022-08-26T02:12:30.787Z,22.39
2022-08-26T02:17:41.045Z,22.34
2022-08-26T02:22:45.239Z,22.29
2022-08-26T02:27:47.650Z,22.25
2022-08-26T02:32:52.157Z,22.20
2022-08-26T02:37:59.199Z,22.16
2022-08-26T02:43:01.065Z,22.13
2022-08-26T02:48:13.606Z,22.10
2022-08-26T02:53:25.090Z,22.04
2022-08-26T02:58:30.211Z,22.02
2022-08-26T03:03:33.752Z,21.98
2022-08-26T03:08:36.493Z,21.95
2022-08-26T03:13:39.908Z,21.91
2022-08-26T03:18:42.010Z,21.87
2022-08-26T03:23:46.338Z,21.90
2022-08-26T03:29:06.534Z,21.89
2022-08-26T03:34:11.260Z,21.86
2022-08-26T03:39:16.104Z,21.85
2022-08-26T03:44:22.098Z,21.80
2022-08-26T03:49:32.170Z,21.76
2022-08-26T03:54:36.582Z,21.85
2022-08-26T03:59:41.953Z,21.72
2022-08-26T04:04:50.386Z,21.66
2022-08-26T04:10:02.162Z,21.56
2022-08-26T04:15:12.547Z,21.48
2022-08-26T04:20:16.236Z,21.43
2022-08-26T04:25:21.289Z,21.36
2022-08-26T04:30:32.417Z,21.26
2022-08-26T04:35:37.116Z,21.45
2022-08-26T04:40:46.901Z,21.62
2022-08-26T04:45:50.816Z,21.30
2022-08-26T04:50:55.854Z,21.18
2022-08-26T04:55:57.557Z,21.15
2022-08-26T05:00:59.865Z,20.98
2022-08-26T05:06:05.510Z,20.87
2022-08-26T05:11:07.813Z,20.81
2022-08-26T05:16:13.919Z,20.81
2022-08-26T05:21:23.605Z,20.85
2022-08-26T05:26:29.335Z,20.85
2022-08-26T05:31:32.336Z,20.92
2022-08-26T05:36:35.715Z,21.02
2022-08-26T05:41:42.948Z,21.09
2022-08-26T05:46:51.252Z,21.22
2022-08-26T05:51:53.060Z,21.29
2022-08-26T05:56:54.761Z,21.36
2022-08-26T06:01:57.671Z,21.44
2022-08-26T06:07:01.048Z,21.55
2022-08-26T06:12:04.059Z,21.69
2022-08-26T06:17:11.047Z,21.80
2022-08-26T06:22:35.410Z,21.89
2022-08-26T06:27:42.552Z,21.99
2022-08-26T06:32:49.447Z,22.10
2022-08-26T06:37:53.443Z,22.19
2022-08-26T06:42:58.017Z,22.31
2022-08-26T06:48:02.163Z,22.36
2022-08-26T06:53:04.662Z,22.47
2022-08-26T06:58:09.450Z,22.59
2022-08-26T07:03:16.184Z,22.68
2022-08-26T07:08:22.342Z,22.78
2022-08-26T07:13:30.673Z,22.91
2022-08-26T07:18:36.897Z,23.05
2022-08-26T07:23:46.976Z,23.16
2022-08-26T07:28:51.364Z,23.32
2022-08-26T07:33:59.947Z,23.48
2022-08-26T07:39:06.941Z,23.57
2022-08-26T07:44:11.009Z,23.70
2022-08-26T07:49:23.076Z,23.80
2022-08-26T07:54:27.336Z,23.96
2022-08-26T07:59:31.843Z,24.05
2022-08-26T08:04:38.536Z,24.06
2022-08-26T08:09:45.371Z,24.26
2022-08-26T08:14:50.257Z,24.38
2022-08-26T08:19:57.474Z,24.54
2022-08-26T08:25:00.944Z,24.58
2022-08-26T08:30:10.850Z,24.68
2022-08-26T08:35:17.473Z,24.81
2022-08-26T08:40:21.815Z,24.96
2022-08-26T08:45:41.960Z,24.99
2022-08-26T08:50:49.431Z,25.09
2022-08-26T08:56:08.713Z,25.23
2022-08-26T09:01:22.941Z,25.36
2022-08-26T09:06:27.769Z,25.35
2022-08-26T09:11:30.254Z,25.42
2022-08-26T09:16:59.425Z,25.55
2022-08-26T09:22:05.779Z,25.76
2022-08-26T09:27:36.574Z,25.94
2022-08-26T09:32:44.121Z,25.95
2022-08-26T09:38:00.864Z,26.14
2022-08-26T09:43:06.614Z,26.32
2022-08-26T09:48:14.241Z,26.61
2022-08-26T09:53:28.456Z,26.49
2022-08-26T09:58:39.513Z,26.50
2022-08-26T10:03:45.822Z,26.58
2022-08-26T10:08:55.307Z,26.22
2022-08-26T10:14:08.452Z,26.26
2022-08-26T10:19:15.852Z,26.48
2022-08-26T10:24:26.783Z,26.67
2022-08-26T10:29:34.333Z,26.88
2022-08-26T10:34:38.656Z,26.88
2022-08-26T10:39:51.881Z,26.66
2022-08-26T10:45:11.965Z,26.35
2022-08-26T10:50:23.208Z,26.54
2022-08-26T10:55:36.054Z,26.65
2022-08-26T11:01:01.261Z,26.76
2022-08-26T11:06:19.087Z,26.96
2022-08-26T11:11:42.375Z,26.91
2022-08-26T11:16:49.756Z,26.83
2022-08-26T11:22:33.058Z,26.36
2022-08-26T11:27:41.565Z,25.96
2022-08-26T11:33:00.166Z,25.80
2022-08-26T11:38:25.586Z,25.41
2022-08-26T11:43:30.259Z,25.23
2022-08-26T11:48:39.972Z,24.99
2022-08-26T11:53:47.499Z,24.88
2022-08-26T11:58:49.934Z,24.77
2022-08-26T12:03:52.591Z,24.76
2022-08-26T12:09:02.352Z,24.64
2022-08-26T12:14:09.019Z,24.61
2022-08-26T12:19:32.842Z,24.50
2022-08-26T12:24:43.851Z,24.41
2022-08-26T12:30:10.138Z,24.46
2022-08-26T12:35:16.858Z,24.55
2022-08-26T12:40:33.005Z,24.55
2022-08-26T12:45:43.121Z,24.46
2022-08-26T12:50:50.541Z,24.51
2022-08-26T12:56:00.238Z,24.46
2022-08-26T13:01:08.377Z,24.40
2022-08-26T13:06:25.916Z,24.62
2022-08-26T13:11:29.140Z,24.60
2022-08-26T13:16:33.880Z,24.37
2022-08-26T13:21:43.021Z,24.24
2022-08-26T13:26:46.552Z,24.13
2022-08-26T13:31:51.942Z,24.00
2022-08-26T13:36:56.279Z,23.99
2022-08-26T13:41:58.355Z,24.00
2022-08-26T13:47:00.165Z,24.44
2022-08-26T13:52:03.695Z,24.79
2022-08-26T13:57:08.158Z,25.15
2022-08-26T14:02:10.046Z,25.62
2022-08-26T14:07:11.926Z,25.46
2022-08-26T14:12:16.623Z,25.43
2022-08-26T14:17:21.377Z,25.93
2022-08-26T14:22:23.185Z,26.01
2022-08-26T14:27:25.510Z,26.19
2022-08-26T14:32:29.984Z,27.02
2022-08-26T14:37:32.850Z,27.49
2022-08-26T14:42:34.834Z,28.07
2022-08-26T14:47:41.470Z,28.42
2022-08-26T14:53:08.131Z,28.81
2022-08-26T14:58:13.728Z,28.74
2022-08-26T15:08:24.568Z,28.15
2022-08-26T15:13:26.372Z,27.36
2022-08-26T15:18:31.708Z,27.18
2022-08-26T15:23:39.321Z,28.22
2022-08-26T15:28:53.084Z,28.94
2022-08-26T15:33:56.446Z,28.07
2022-08-26T15:39:00.290Z,28.28
2022-08-26T15:44:03.668Z,28.02
2022-08-26T15:49:08.088Z,27.67
2022-08-26T15:54:22.105Z,27.44
2022-08-26T15:59:26.905Z,26.75
2022-08-26T16:04:31.181Z,26.44
2022-08-26T16:09:33.058Z,26.51
2022-08-26T16:14:40.587Z,26.26
2022-08-26T16:19:44.623Z,25.97
2022-08-26T16:24:49.005Z,25.67
2022-08-26T16:29:51.067Z,25.54
2022-08-26T16:34:56.663Z,25.31
2022-08-26T16:40:01.321Z,25.27
2022-08-26T16:45:08.787Z,25.25
2022-08-26T16:50:14.657Z,24.88
2022-08-26T16:55:16.660Z,24.45
2022-08-26T17:00:28.033Z,24.47
2022-08-26T17:05:29.937Z,24.21
2022-08-26T17:10:35.053Z,23.87
2022-08-26T17:15:37.044Z,23.71
2022-08-26T17:20:41.737Z,23.71
2022-08-26T17:25:43.860Z,23.58
2022-08-26T17:30:48.117Z,23.49
2022-08-26T17:35:56.458Z,23.22
2022-08-26T17:41:00.204Z,23.08
2022-08-26T17:46:07.010Z,23.00
2022-08-26T17:51:14.010Z,22.94
2022-08-26T17:56:24.202Z,22.86
2022-08-26T18:01:28.592Z,22.80
2022-08-26T18:06:33.027Z,22.69
2022-08-26T18:11:37.243Z,22.63
2022-08-26T18:16:41.626Z,22.53
2022-08-26T18:21:44.058Z,22.44
2022-08-26T18:26:51.676Z,22.70
2022-08-26T18:31:58.218Z,22.39
2022-08-26T18:36:59.990Z,22.23
2022-08-26T18:42:07.237Z,22.06
2022-08-26T18:47:12.144Z,21.99
2022-08-26T18:52:18.089Z,22.05
2022-08-26T18:57:20.914Z,21.97
2022-08-26T19:02:24.969Z,21.97
2022-08-26T19:07:29.685Z,21.89
2022-08-26T19:12:33.562Z,21.83
2022-08-26T19:17:40.124Z,21.74
2022-08-26T19:22:41.849Z,21.69
2022-08-26T19:27:45.684Z,21.67
2022-08-26T19:32:52.826Z,21.65
2022-08-26T19:37:57.114Z,21.58
2022-08-26T19:43:01.096Z,21.51
2022-08-26T19:48:06.229Z,21.37
2022-08-26T19:53:12.495Z,21.42
2022-08-26T19:58:16.539Z,21.43
2022-08-26T20:03:18.354Z,21.38
2022-08-26T20:08:22.814Z,21.31
2022-08-26T20:13:26.958Z,21.28
2022-08-26T20:18:49.473Z,21.22
2022-08-26T20:23:51.744Z,21.18
2022-08-26T20:28:56.273Z,21.20
2022-08-26T20:34:01.516Z,21.20
2022-08-26T20:39:10.823Z,21.10
2022-08-26T20:44:16.679Z,21.02
2022-08-26T20:49:18.746Z,20.88
2022-08-26T20:54:27.527Z,20.76
2022-08-26T20:59:32.592Z,20.66
2022-08-26T21:04:36.667Z,20.54
2022-08-26T21:09:41.330Z,20.48
2022-08-26T21:14:49.860Z,20.46
2022-08-26T21:19:54.064Z,20.43
2022-08-26T21:24:56.473Z,20.45
2022-08-26T21:30:00.741Z,20.44
2022-08-26T21:35:05.685Z,20.37
2022-08-26T21:40:11.282Z,20.34
2022-08-26T21:45:13.135Z,20.32
2022-08-26T21:50:14.940Z,20.32
2022-08-26T21:55:19.190Z,20.30
2022-08-26T22:00:23.178Z,20.28
2022-08-26T22:05:27.321Z,20.24
2022-08-26T22:10:32.014Z,20.22
2022-08-26T22:15:35.592Z,20.17
2022-08-26T22:20:37.439Z,20.18
2022-08-26T22:25:39.336Z,20.13
2022-08-26T22:30:44.337Z,20.11
2022-08-26T22:35:52.775Z,20.09
2022-08-26T22:41:00.247Z,20.03
2022-08-26T22:46:04.286Z,20.01
2022-08-26T22:51:06.486Z,19.96
2022-08-26T22:56:13.801Z,19.86
2022-08-26T23:01:16.965Z,19.82
2022-08-26T23:06:18.891Z,19.84
2022-08-26T23:11:24.060Z,19.75
2022-08-26T23:16:25.892Z,19.69
2022-08-26T23:21:29.992Z,19.68
2022-08-26T23:26:35.003Z,19.68
2022-08-26T23:31:38.530Z,19.65
2022-08-26T23:36:42.425Z,19.61
2022-08-26T23:41:46.290Z,19.56
2022-08-26T23:46:49.315Z,19.54
2022-08-26T23:52:12.874Z,19.55
2022-08-26T23:57:16.616Z,19.52
